sensor_id;sensor_type;location;lat;lon;timestamp;P1;durP1;ratioP1;P2;durP2;ratioP2
15595;SDS011;7898;48.658;9.068;2023-05-29T00:00:26;13.30;;;6.90;;
15595;SDS011;7898;48.658;9.068;2023-05-29T00:02:54;12.67;;;7.83;;
15595;SDS011;7898;48.658;9.068;2023-05-29T00:05:21;10.77;;;7.07;;
15595;SDS011;7898;48.658;9.068;2023-05-29T00:07:47;12.10;;;8.33;;
15595;SDS011;7898;48.658;9.068;2023-05-29T00:10:15;14.00;;;8.93;;
15595;SDS011;7898;48.658;9.068;2023-05-29T00:12:44;14.43;;;7.60;;
15595;SDS011;7898;48.658;9.068;2023-05-29T00:15:10;12.90;;;7.67;;
15595;SDS011;7898;48.658;9.068;2023-05-29T00:17:37;10.20;;;7.17;;
15595;SDS011;7898;48.658;9.068;2023-05-29T00:20:05;11.90;;;7.33;;
15595;SDS011;7898;48.658;9.068;2023-05-29T00:22:34;13.07;;;7.17;;
15595;SDS011;7898;48.658;9.068;2023-05-29T00:25:02;11.93;;;7.67;;
15595;SDS011;7898;48.658;9.068;2023-05-29T00:27:30;15.37;;;8.37;;
15595;SDS011;7898;48.658;9.068;2023-05-29T00:29:59;13.73;;;7.57;;
15595;SDS011;7898;48.658;9.068;2023-05-29T00:32:26;15.13;;;8.47;;
15595;SDS011;7898;48.658;9.068;2023-05-29T00:34:53;11.17;;;7.60;;
15595;SDS011;7898;48.658;9.068;2023-05-29T00:37:20;14.20;;;7.83;;
15595;SDS011;7898;48.658;9.068;2023-05-29T00:39:47;11.27;;;7.33;;
15595;SDS011;7898;48.658;9.068;2023-05-29T00:42:14;11.90;;;8.00;;
15595;SDS011;7898;48.658;9.068;2023-05-29T00:44:41;11.47;;;7.73;;
15595;SDS011;7898;48.658;9.068;2023-05-29T00:47:09;13.20;;;7.17;;
15595;SDS011;7898;48.658;9.068;2023-05-29T00:49:36;10.27;;;6.83;;
15595;SDS011;7898;48.658;9.068;2023-05-29T00:52:04;11.13;;;6.93;;
15595;SDS011;7898;48.658;9.068;2023-05-29T00:54:32;11.33;;;6.83;;
15595;SDS011;7898;48.658;9.068;2023-05-29T00:57:01;12.23;;;7.27;;
15595;SDS011;7898;48.658;9.068;2023-05-29T00:59:31;12.60;;;6.97;;
15595;SDS011;7898;48.658;9.068;2023-05-29T01:02:00;11.70;;;6.83;;
15595;SDS011;7898;48.658;9.068;2023-05-29T01:04:30;10.83;;;7.47;;
15595;SDS011;7898;48.658;9.068;2023-05-29T01:06:58;10.87;;;6.97;;
15595;SDS011;7898;48.658;9.068;2023-05-29T01:09:27;12.80;;;6.47;;
15595;SDS011;7898;48.658;9.068;2023-05-29T01:11:57;11.30;;;6.90;;
15595;SDS011;7898;48.658;9.068;2023-05-29T01:14:29;9.70;;;6.33;;
15595;SDS011;7898;48.658;9.068;2023-05-29T01:17:03;8.90;;;6.20;;
15595;SDS011;7898;48.658;9.068;2023-05-29T01:19:45;11.10;;;6.80;;
15595;SDS011;7898;48.658;9.068;2023-05-29T01:22:25;9.53;;;6.37;;
15595;SDS011;7898;48.658;9.068;2023-05-29T01:25:05;10.40;;;5.17;;
15595;SDS011;7898;48.658;9.068;2023-05-29T01:27:40;10.27;;;5.77;;
15595;SDS011;7898;48.658;9.068;2023-05-29T01:30:10;8.53;;;5.50;;
15595;SDS011;7898;48.658;9.068;2023-05-29T01:32:38;9.47;;;6.03;;
15595;SDS011;7898;48.658;9.068;2023-05-29T01:35:06;9.60;;;6.57;;
15595;SDS011;7898;48.658;9.068;2023-05-29T01:37:33;10.77;;;6.20;;
15595;SDS011;7898;48.658;9.068;2023-05-29T01:40:00;10.23;;;5.70;;
15595;SDS011;7898;48.658;9.068;2023-05-29T01:42:28;13.13;;;6.40;;
15595;SDS011;7898;48.658;9.068;2023-05-29T01:44:57;8.17;;;6.07;;
15595;SDS011;7898;48.658;9.068;2023-05-29T01:47:24;9.03;;;5.83;;
15595;SDS011;7898;48.658;9.068;2023-05-29T01:49:52;10.83;;;6.70;;
15595;SDS011;7898;48.658;9.068;2023-05-29T01:52:20;9.40;;;6.10;;
15595;SDS011;7898;48.658;9.068;2023-05-29T01:54:47;10.93;;;6.97;;
15595;SDS011;7898;48.658;9.068;2023-05-29T01:57:14;9.50;;;6.00;;
15595;SDS011;7898;48.658;9.068;2023-05-29T01:59:42;10.67;;;6.00;;
15595;SDS011;7898;48.658;9.068;2023-05-29T02:02:10;10.10;;;6.17;;
15595;SDS011;7898;48.658;9.068;2023-05-29T02:04:37;11.17;;;7.00;;
15595;SDS011;7898;48.658;9.068;2023-05-29T02:07:04;12.13;;;6.77;;
15595;SDS011;7898;48.658;9.068;2023-05-29T02:09:32;8.40;;;6.10;;
15595;SDS011;7898;48.658;9.068;2023-05-29T02:11:59;12.80;;;6.37;;
15595;SDS011;7898;48.658;9.068;2023-05-29T02:14:26;16.33;;;6.67;;
15595;SDS011;7898;48.658;9.068;2023-05-29T02:16:54;13.13;;;6.80;;
15595;SDS011;7898;48.658;9.068;2023-05-29T02:19:23;10.83;;;6.17;;
15595;SDS011;7898;48.658;9.068;2023-05-29T02:21:51;8.97;;;5.80;;
15595;SDS011;7898;48.658;9.068;2023-05-29T02:24:18;7.90;;;5.47;;
15595;SDS011;7898;48.658;9.068;2023-05-29T02:26:45;8.93;;;6.00;;
15595;SDS011;7898;48.658;9.068;2023-05-29T02:29:14;10.00;;;6.60;;
15595;SDS011;7898;48.658;9.068;2023-05-29T02:31:41;11.60;;;5.80;;
15595;SDS011;7898;48.658;9.068;2023-05-29T02:34:07;10.63;;;6.20;;
15595;SDS011;7898;48.658;9.068;2023-05-29T02:36:36;9.90;;;5.83;;
15595;SDS011;7898;48.658;9.068;2023-05-29T02:39:03;9.53;;;6.03;;
15595;SDS011;7898;48.658;9.068;2023-05-29T02:41:30;9.53;;;5.83;;
15595;SDS011;7898;48.658;9.068;2023-05-29T02:43:57;9.07;;;5.70;;
15595;SDS011;7898;48.658;9.068;2023-05-29T02:46:24;10.57;;;6.13;;
15595;SDS011;7898;48.658;9.068;2023-05-29T02:48:51;10.90;;;6.80;;
15595;SDS011;7898;48.658;9.068;2023-05-29T02:51:18;14.63;;;6.23;;
15595;SDS011;7898;48.658;9.068;2023-05-29T02:53:46;8.30;;;5.87;;
15595;SDS011;7898;48.658;9.068;2023-05-29T02:56:14;13.80;;;6.43;;
15595;SDS011;7898;48.658;9.068;2023-05-29T02:58:42;11.30;;;6.73;;
15595;SDS011;7898;48.658;9.068;2023-05-29T03:01:08;10.50;;;5.67;;
15595;SDS011;7898;48.658;9.068;2023-05-29T03:03:36;9.63;;;6.30;;
15595;SDS011;7898;48.658;9.068;2023-05-29T03:06:03;10.97;;;6.73;;
15595;SDS011;7898;48.658;9.068;2023-05-29T03:08:30;9.87;;;6.47;;
15595;SDS011;7898;48.658;9.068;2023-05-29T03:11:00;10.13;;;6.30;;
15595;SDS011;7898;48.658;9.068;2023-05-29T03:13:27;9.60;;;6.27;;
15595;SDS011;7898;48.658;9.068;2023-05-29T03:15:54;11.27;;;6.50;;
15595;SDS011;7898;48.658;9.068;2023-05-29T03:18:22;10.53;;;6.10;;
15595;SDS011;7898;48.658;9.068;2023-05-29T03:20:49;10.80;;;6.10;;
15595;SDS011;7898;48.658;9.068;2023-05-29T03:23:16;8.83;;;6.10;;
15595;SDS011;7898;48.658;9.068;2023-05-29T03:25:43;9.67;;;6.40;;
15595;SDS011;7898;48.658;9.068;2023-05-29T03:28:11;11.87;;;6.60;;
15595;SDS011;7898;48.658;9.068;2023-05-29T03:30:38;9.43;;;5.80;;
15595;SDS011;7898;48.658;9.068;2023-05-29T03:33:04;8.53;;;6.00;;
15595;SDS011;7898;48.658;9.068;2023-05-29T03:35:31;12.77;;;6.63;;
15595;SDS011;7898;48.658;9.068;2023-05-29T03:37:59;7.77;;;5.83;;
15595;SDS011;7898;48.658;9.068;2023-05-29T03:40:26;9.80;;;5.90;;
15595;SDS011;7898;48.658;9.068;2023-05-29T03:42:53;9.43;;;5.70;;
15595;SDS011;7898;48.658;9.068;2023-05-29T03:45:21;10.03;;;6.17;;
15595;SDS011;7898;48.658;9.068;2023-05-29T03:47:48;9.93;;;5.43;;
15595;SDS011;7898;48.658;9.068;2023-05-29T03:50:15;9.50;;;5.67;;
15595;SDS011;7898;48.658;9.068;2023-05-29T03:52:42;9.63;;;5.90;;
15595;SDS011;7898;48.658;9.068;2023-05-29T03:55:09;10.23;;;5.90;;
15595;SDS011;7898;48.658;9.068;2023-05-29T03:57:39;11.60;;;6.03;;
15595;SDS011;7898;48.658;9.068;2023-05-29T04:00:07;7.90;;;5.10;;
15595;SDS011;7898;48.658;9.068;2023-05-29T04:02:38;9.00;;;6.07;;
15595;SDS011;7898;48.658;9.068;2023-05-29T04:05:05;8.50;;;5.10;;
15595;SDS011;7898;48.658;9.068;2023-05-29T04:07:32;10.93;;;5.53;;
15595;SDS011;7898;48.658;9.068;2023-05-29T04:09:59;6.67;;;4.33;;
15595;SDS011;7898;48.658;9.068;2023-05-29T04:12:26;7.40;;;4.67;;
15595;SDS011;7898;48.658;9.068;2023-05-29T04:14:53;10.60;;;5.77;;
15595;SDS011;7898;48.658;9.068;2023-05-29T04:17:20;8.73;;;5.47;;
15595;SDS011;7898;48.658;9.068;2023-05-29T04:19:48;8.83;;;5.33;;
15595;SDS011;7898;48.658;9.068;2023-05-29T04:22:15;9.13;;;5.93;;
15595;SDS011;7898;48.658;9.068;2023-05-29T04:24:42;9.03;;;6.40;;
15595;SDS011;7898;48.658;9.068;2023-05-29T04:27:09;9.33;;;5.80;;
15595;SDS011;7898;48.658;9.068;2023-05-29T04:29:38;10.90;;;6.80;;
15595;SDS011;7898;48.658;9.068;2023-05-29T04:32:05;10.17;;;6.53;;
15595;SDS011;7898;48.658;9.068;2023-05-29T04:34:33;8.73;;;5.60;;
15595;SDS011;7898;48.658;9.068;2023-05-29T04:37:01;11.30;;;5.90;;
15595;SDS011;7898;48.658;9.068;2023-05-29T04:39:29;9.03;;;5.90;;
15595;SDS011;7898;48.658;9.068;2023-05-29T04:41:56;7.80;;;5.60;;
15595;SDS011;7898;48.658;9.068;2023-05-29T04:44:24;9.47;;;6.17;;
15595;SDS011;7898;48.658;9.068;2023-05-29T04:46:52;9.03;;;5.63;;
15595;SDS011;7898;48.658;9.068;2023-05-29T04:49:19;9.73;;;5.23;;
15595;SDS011;7898;48.658;9.068;2023-05-29T04:51:46;10.47;;;6.10;;
15595;SDS011;7898;48.658;9.068;2023-05-29T04:54:14;10.03;;;6.20;;
15595;SDS011;7898;48.658;9.068;2023-05-29T04:56:42;11.57;;;6.37;;
15595;SDS011;7898;48.658;9.068;2023-05-29T04:59:09;11.50;;;6.10;;
15595;SDS011;7898;48.658;9.068;2023-05-29T05:01:36;7.80;;;5.67;;
15595;SDS011;7898;48.658;9.068;2023-05-29T05:04:03;10.27;;;5.97;;
15595;SDS011;7898;48.658;9.068;2023-05-29T05:06:30;11.77;;;6.13;;
15595;SDS011;7898;48.658;9.068;2023-05-29T05:08:56;9.03;;;6.00;;
15595;SDS011;7898;48.658;9.068;2023-05-29T05:11:25;9.80;;;5.90;;
15595;SDS011;7898;48.658;9.068;2023-05-29T05:13:51;13.83;;;5.70;;
15595;SDS011;7898;48.658;9.068;2023-05-29T05:16:18;8.00;;;5.40;;
15595;SDS011;7898;48.658;9.068;2023-05-29T05:18:45;7.70;;;5.57;;
15595;SDS011;7898;48.658;9.068;2023-05-29T05:21:12;10.13;;;6.10;;
15595;SDS011;7898;48.658;9.068;2023-05-29T05:23:40;9.67;;;6.13;;
15595;SDS011;7898;48.658;9.068;2023-05-29T05:26:07;10.03;;;6.13;;
15595;SDS011;7898;48.658;9.068;2023-05-29T05:28:35;9.07;;;6.10;;
15595;SDS011;7898;48.658;9.068;2023-05-29T05:31:02;9.20;;;6.22;;
15595;SDS011;7898;48.658;9.068;2023-05-29T05:33:29;8.70;;;6.10;;
15595;SDS011;7898;48.658;9.068;2023-05-29T05:35:55;10.52;;;6.05;;
15595;SDS011;7898;48.658;9.068;2023-05-29T05:38:22;11.67;;;6.87;;
15595;SDS011;7898;48.658;9.068;2023-05-29T05:40:49;10.43;;;6.20;;
15595;SDS011;7898;48.658;9.068;2023-05-29T05:43:16;9.85;;;6.20;;
15595;SDS011;7898;48.658;9.068;2023-05-29T05:45:44;17.55;;;8.13;;
15595;SDS011;7898;48.658;9.068;2023-05-29T05:48:11;9.70;;;6.38;;
15595;SDS011;7898;48.658;9.068;2023-05-29T05:50:38;12.85;;;7.80;;
15595;SDS011;7898;48.658;9.068;2023-05-29T05:53:05;10.45;;;5.68;;
15595;SDS011;7898;48.658;9.068;2023-05-29T05:55:32;11.20;;;6.65;;
15595;SDS011;7898;48.658;9.068;2023-05-29T05:57:59;7.00;;;5.50;;
15595;SDS011;7898;48.658;9.068;2023-05-29T06:00:26;8.00;;;5.63;;
15595;SDS011;7898;48.658;9.068;2023-05-29T06:02:54;9.05;;;5.82;;
15595;SDS011;7898;48.658;9.068;2023-05-29T06:05:21;6.25;;;4.93;;
15595;SDS011;7898;48.658;9.068;2023-05-29T06:07:48;7.47;;;5.10;;
15595;SDS011;7898;48.658;9.068;2023-05-29T06:10:15;9.30;;;5.93;;
15595;SDS011;7898;48.658;9.068;2023-05-29T06:12:42;11.07;;;6.00;;
15595;SDS011;7898;48.658;9.068;2023-05-29T06:15:09;8.35;;;5.55;;
15595;SDS011;7898;48.658;9.068;2023-05-29T06:17:36;6.57;;;5.47;;
15595;SDS011;7898;48.658;9.068;2023-05-29T06:20:05;7.93;;;5.35;;
15595;SDS011;7898;48.658;9.068;2023-05-29T06:22:35;8.23;;;5.40;;
15595;SDS011;7898;48.658;9.068;2023-05-29T06:25:02;7.40;;;5.05;;
15595;SDS011;7898;48.658;9.068;2023-05-29T06:27:29;8.07;;;4.97;;
15595;SDS011;7898;48.658;9.068;2023-05-29T06:29:56;7.60;;;4.82;;
15595;SDS011;7898;48.658;9.068;2023-05-29T06:32:23;8.38;;;5.00;;
15595;SDS011;7898;48.658;9.068;2023-05-29T06:34:50;8.02;;;4.57;;
15595;SDS011;7898;48.658;9.068;2023-05-29T06:37:19;8.75;;;4.80;;
15595;SDS011;7898;48.658;9.068;2023-05-29T06:39:45;8.85;;;5.50;;
15595;SDS011;7898;48.658;9.068;2023-05-29T06:42:12;9.38;;;5.38;;
15595;SDS011;7898;48.658;9.068;2023-05-29T06:44:39;8.38;;;5.55;;
15595;SDS011;7898;48.658;9.068;2023-05-29T06:47:06;8.45;;;5.35;;
15595;SDS011;7898;48.658;9.068;2023-05-29T06:49:33;7.55;;;5.40;;
15595;SDS011;7898;48.658;9.068;2023-05-29T06:52:00;5.60;;;4.93;;
15595;SDS011;7898;48.658;9.068;2023-05-29T06:54:28;8.40;;;5.65;;
15595;SDS011;7898;48.658;9.068;2023-05-29T06:56:55;8.35;;;5.60;;
15595;SDS011;7898;48.658;9.068;2023-05-29T06:59:22;6.38;;;4.60;;
15595;SDS011;7898;48.658;9.068;2023-05-29T07:01:49;6.68;;;4.45;;
15595;SDS011;7898;48.658;9.068;2023-05-29T07:04:16;8.98;;;5.25;;
15595;SDS011;7898;48.658;9.068;2023-05-29T07:06:42;6.85;;;4.47;;
15595;SDS011;7898;48.658;9.068;2023-05-29T07:09:09;8.48;;;4.78;;
15595;SDS011;7898;48.658;9.068;2023-05-29T07:11:38;6.80;;;5.15;;
15595;SDS011;7898;48.658;9.068;2023-05-29T07:14:05;9.23;;;5.28;;
15595;SDS011;7898;48.658;9.068;2023-05-29T07:16:32;8.05;;;5.25;;
15595;SDS011;7898;48.658;9.068;2023-05-29T07:18:59;7.90;;;5.50;;
15595;SDS011;7898;48.658;9.068;2023-05-29T07:21:25;9.90;;;5.50;;
15595;SDS011;7898;48.658;9.068;2023-05-29T07:23:52;7.60;;;5.07;;
15595;SDS011;7898;48.658;9.068;2023-05-29T07:26:19;7.75;;;5.10;;
15595;SDS011;7898;48.658;9.068;2023-05-29T07:28:49;7.50;;;4.60;;
15595;SDS011;7898;48.658;9.068;2023-05-29T07:31:16;9.50;;;5.63;;
15595;SDS011;7898;48.658;9.068;2023-05-29T07:33:43;8.23;;;5.45;;
15595;SDS011;7898;48.658;9.068;2023-05-29T07:36:10;8.20;;;5.68;;
15595;SDS011;7898;48.658;9.068;2023-05-29T07:38:37;9.73;;;5.28;;
15595;SDS011;7898;48.658;9.068;2023-05-29T07:41:04;7.63;;;4.95;;
15595;SDS011;7898;48.658;9.068;2023-05-29T07:43:31;7.85;;;5.45;;
15595;SDS011;7898;48.658;9.068;2023-05-29T07:45:59;7.43;;;5.68;;
15595;SDS011;7898;48.658;9.068;2023-05-29T07:48:26;8.35;;;5.40;;
15595;SDS011;7898;48.658;9.068;2023-05-29T07:50:53;6.28;;;4.78;;
15595;SDS011;7898;48.658;9.068;2023-05-29T07:53:20;6.97;;;5.13;;
15595;SDS011;7898;48.658;9.068;2023-05-29T07:55:47;7.35;;;5.47;;
15595;SDS011;7898;48.658;9.068;2023-05-29T07:58:13;9.07;;;5.32;;
15595;SDS011;7898;48.658;9.068;2023-05-29T08:00:41;8.63;;;5.70;;
15595;SDS011;7898;48.658;9.068;2023-05-29T08:03:11;9.55;;;5.72;;
15595;SDS011;7898;48.658;9.068;2023-05-29T08:05:38;8.98;;;5.00;;
15595;SDS011;7898;48.658;9.068;2023-05-29T08:08:05;7.03;;;5.53;;
15595;SDS011;7898;48.658;9.068;2023-05-29T08:10:32;10.35;;;5.60;;
15595;SDS011;7898;48.658;9.068;2023-05-29T08:12:58;8.43;;;5.10;;
15595;SDS011;7898;48.658;9.068;2023-05-29T08:15:25;8.68;;;5.28;;
15595;SDS011;7898;48.658;9.068;2023-05-29T08:17:52;10.40;;;5.63;;
15595;SDS011;7898;48.658;9.068;2023-05-29T08:20:20;6.70;;;5.43;;
15595;SDS011;7898;48.658;9.068;2023-05-29T08:22:47;6.05;;;4.80;;
15595;SDS011;7898;48.658;9.068;2023-05-29T08:25:14;8.27;;;5.60;;
15595;SDS011;7898;48.658;9.068;2023-05-29T08:27:41;8.90;;;5.43;;
15595;SDS011;7898;48.658;9.068;2023-05-29T08:30:09;7.53;;;5.20;;
15595;SDS011;7898;48.658;9.068;2023-05-29T08:32:37;7.47;;;5.03;;
15595;SDS011;7898;48.658;9.068;2023-05-29T08:35:04;8.35;;;5.40;;
15595;SDS011;7898;48.658;9.068;2023-05-29T08:37:33;7.55;;;5.22;;
15595;SDS011;7898;48.658;9.068;2023-05-29T08:39:59;7.50;;;5.53;;
15595;SDS011;7898;48.658;9.068;2023-05-29T08:42:33;10.13;;;5.70;;
15595;SDS011;7898;48.658;9.068;2023-05-29T08:45:06;7.95;;;5.47;;
15595;SDS011;7898;48.658;9.068;2023-05-29T08:47:35;9.10;;;5.75;;
15595;SDS011;7898;48.658;9.068;2023-05-29T08:50:06;6.22;;;5.18;;
15595;SDS011;7898;48.658;9.068;2023-05-29T08:52:35;8.35;;;5.72;;
15595;SDS011;7898;48.658;9.068;2023-05-29T08:55:03;7.75;;;5.53;;
15595;SDS011;7898;48.658;9.068;2023-05-29T08:57:31;8.77;;;5.53;;
15595;SDS011;7898;48.658;9.068;2023-05-29T09:00:00;10.07;;;5.75;;
15595;SDS011;7898;48.658;9.068;2023-05-29T09:02:33;8.38;;;5.25;;
15595;SDS011;7898;48.658;9.068;2023-05-29T09:05:01;8.70;;;5.25;;
15595;SDS011;7898;48.658;9.068;2023-05-29T09:07:29;7.95;;;4.68;;
15595;SDS011;7898;48.658;9.068;2023-05-29T09:09:57;9.68;;;5.57;;
15595;SDS011;7898;48.658;9.068;2023-05-29T09:12:25;9.10;;;5.78;;
15595;SDS011;7898;48.658;9.068;2023-05-29T09:14:52;6.10;;;5.43;;
15595;SDS011;7898;48.658;9.068;2023-05-29T09:17:19;12.25;;;5.47;;
15595;SDS011;7898;48.658;9.068;2023-05-29T09:19:47;6.93;;;5.22;;
15595;SDS011;7898;48.658;9.068;2023-05-29T09:22:14;8.25;;;5.40;;
15595;SDS011;7898;48.658;9.068;2023-05-29T09:24:42;9.35;;;5.45;;
15595;SDS011;7898;48.658;9.068;2023-05-29T09:27:15;6.70;;;5.32;;
15595;SDS011;7898;48.658;9.068;2023-05-29T09:29:43;8.15;;;5.72;;
15595;SDS011;7898;48.658;9.068;2023-05-29T09:32:12;9.05;;;5.57;;
15595;SDS011;7898;48.658;9.068;2023-05-29T09:34:49;8.38;;;5.28;;
15595;SDS011;7898;48.658;9.068;2023-05-29T09:37:20;9.45;;;5.68;;
15595;SDS011;7898;48.658;9.068;2023-05-29T09:39:47;7.25;;;5.55;;
15595;SDS011;7898;48.658;9.068;2023-05-29T09:42:14;6.85;;;5.00;;
15595;SDS011;7898;48.658;9.068;2023-05-29T09:44:42;7.93;;;5.30;;
15595;SDS011;7898;48.658;9.068;2023-05-29T09:47:13;8.93;;;5.25;;
15595;SDS011;7898;48.658;9.068;2023-05-29T09:49:41;9.05;;;5.50;;
15595;SDS011;7898;48.658;9.068;2023-05-29T09:52:09;11.32;;;5.50;;
15595;SDS011;7898;48.658;9.068;2023-05-29T09:54:39;6.25;;;5.07;;
15595;SDS011;7898;48.658;9.068;2023-05-29T09:57:07;7.32;;;5.25;;
15595;SDS011;7898;48.658;9.068;2023-05-29T09:59:35;10.40;;;5.43;;
15595;SDS011;7898;48.658;9.068;2023-05-29T10:02:04;8.35;;;5.85;;
15595;SDS011;7898;48.658;9.068;2023-05-29T10:04:32;7.75;;;5.82;;
15595;SDS011;7898;48.658;9.068;2023-05-29T10:07:00;6.85;;;5.35;;
15595;SDS011;7898;48.658;9.068;2023-05-29T10:09:33;7.53;;;5.53;;
15595;SDS011;7898;48.658;9.068;2023-05-29T10:12:01;8.02;;;5.47;;
15595;SDS011;7898;48.658;9.068;2023-05-29T10:14:33;6.97;;;5.20;;
15595;SDS011;7898;48.658;9.068;2023-05-29T10:17:01;5.90;;;4.97;;
15595;SDS011;7898;48.658;9.068;2023-05-29T10:19:33;5.78;;;4.85;;
15595;SDS011;7898;48.658;9.068;2023-05-29T10:22:03;7.25;;;5.07;;
15595;SDS011;7898;48.658;9.068;2023-05-29T10:24:33;8.38;;;5.00;;
15595;SDS011;7898;48.658;9.068;2023-05-29T10:27:03;11.65;;;5.80;;
15595;SDS011;7898;48.658;9.068;2023-05-29T10:29:33;11.02;;;5.15;;
15595;SDS011;7898;48.658;9.068;2023-05-29T10:32:07;10.88;;;4.72;;
15595;SDS011;7898;48.658;9.068;2023-05-29T10:34:47;7.40;;;5.30;;
15595;SDS011;7898;48.658;9.068;2023-05-29T10:37:24;9.68;;;5.15;;
15595;SDS011;7898;48.658;9.068;2023-05-29T10:40:06;7.03;;;5.03;;
15595;SDS011;7898;48.658;9.068;2023-05-29T10:42:41;9.40;;;5.30;;
15595;SDS011;7898;48.658;9.068;2023-05-29T10:45:10;7.03;;;4.82;;
15595;SDS011;7898;48.658;9.068;2023-05-29T10:47:38;11.50;;;5.07;;
15595;SDS011;7898;48.658;9.068;2023-05-29T10:50:05;10.80;;;5.15;;
15595;SDS011;7898;48.658;9.068;2023-05-29T10:52:32;7.38;;;4.65;;
15595;SDS011;7898;48.658;9.068;2023-05-29T10:55:00;6.80;;;5.07;;
15595;SDS011;7898;48.658;9.068;2023-05-29T10:57:30;7.57;;;4.88;;
15595;SDS011;7898;48.658;9.068;2023-05-29T11:00:04;9.43;;;4.88;;
15595;SDS011;7898;48.658;9.068;2023-05-29T11:02:39;8.40;;;4.78;;
15595;SDS011;7898;48.658;9.068;2023-05-29T11:05:19;6.78;;;4.65;;
15595;SDS011;7898;48.658;9.068;2023-05-29T11:07:51;8.63;;;4.88;;
15595;SDS011;7898;48.658;9.068;2023-05-29T11:10:41;6.68;;;5.18;;
15595;SDS011;7898;48.658;9.068;2023-05-29T11:13:12;8.32;;;5.28;;
15595;SDS011;7898;48.658;9.068;2023-05-29T11:16:03;7.25;;;4.57;;
15595;SDS011;7898;48.658;9.068;2023-05-29T11:18:41;6.63;;;4.53;;
15595;SDS011;7898;48.658;9.068;2023-05-29T11:21:21;7.65;;;4.57;;
15595;SDS011;7898;48.658;9.068;2023-05-29T11:23:55;6.55;;;4.45;;
15595;SDS011;7898;48.658;9.068;2023-05-29T11:26:26;8.30;;;4.60;;
15595;SDS011;7898;48.658;9.068;2023-05-29T11:28:55;5.38;;;4.05;;
15595;SDS011;7898;48.658;9.068;2023-05-29T11:31:23;8.20;;;4.50;;
15595;SDS011;7898;48.658;9.068;2023-05-29T11:33:52;8.00;;;4.70;;
15595;SDS011;7898;48.658;9.068;2023-05-29T11:36:25;6.88;;;4.50;;
15595;SDS011;7898;48.658;9.068;2023-05-29T11:38:53;6.65;;;4.45;;
15595;SDS011;7898;48.658;9.068;2023-05-29T11:41:20;7.43;;;4.65;;
15595;SDS011;7898;48.658;9.068;2023-05-29T11:43:56;8.38;;;4.57;;
15595;SDS011;7898;48.658;9.068;2023-05-29T11:46:24;6.18;;;4.95;;
15595;SDS011;7898;48.658;9.068;2023-05-29T11:48:53;5.35;;;4.22;;
15595;SDS011;7898;48.658;9.068;2023-05-29T11:51:20;6.65;;;4.10;;
15595;SDS011;7898;48.658;9.068;2023-05-29T11:53:47;8.30;;;4.47;;
15595;SDS011;7898;48.658;9.068;2023-05-29T11:56:18;7.53;;;3.90;;
15595;SDS011;7898;48.658;9.068;2023-05-29T11:58:46;5.55;;;4.53;;
15595;SDS011;7898;48.658;9.068;2023-05-29T12:01:16;8.43;;;4.65;;
15595;SDS011;7898;48.658;9.068;2023-05-29T12:03:44;5.85;;;4.30;;
15595;SDS011;7898;48.658;9.068;2023-05-29T12:06:11;6.28;;;3.90;;
15595;SDS011;7898;48.658;9.068;2023-05-29T12:08:38;5.40;;;4.03;;
15595;SDS011;7898;48.658;9.068;2023-05-29T12:11:06;6.65;;;4.00;;
15595;SDS011;7898;48.658;9.068;2023-05-29T12:13:33;6.05;;;4.50;;
15595;SDS011;7898;48.658;9.068;2023-05-29T12:16:01;6.10;;;3.90;;
15595;SDS011;7898;48.658;9.068;2023-05-29T12:18:31;6.25;;;4.13;;
15595;SDS011;7898;48.658;9.068;2023-05-29T12:20:59;7.00;;;3.83;;
15595;SDS011;7898;48.658;9.068;2023-05-29T12:23:27;6.93;;;4.10;;
15595;SDS011;7898;48.658;9.068;2023-05-29T12:25:55;5.57;;;4.22;;
15595;SDS011;7898;48.658;9.068;2023-05-29T12:28:22;6.15;;;3.90;;
15595;SDS011;7898;48.658;9.068;2023-05-29T12:30:49;6.53;;;3.83;;
15595;SDS011;7898;48.658;9.068;2023-05-29T12:33:29;5.30;;;3.95;;
15595;SDS011;7898;48.658;9.068;2023-05-29T12:36:05;5.75;;;3.80;;
15595;SDS011;7898;48.658;9.068;2023-05-29T12:38:41;5.28;;;4.40;;
15595;SDS011;7898;48.658;9.068;2023-05-29T12:41:21;8.70;;;3.88;;
15595;SDS011;7898;48.658;9.068;2023-05-29T12:43:52;5.20;;;3.80;;
15595;SDS011;7898;48.658;9.068;2023-05-29T12:46:20;5.00;;;3.63;;
15595;SDS011;7898;48.658;9.068;2023-05-29T12:48:47;3.75;;;3.33;;
15595;SDS011;7898;48.658;9.068;2023-05-29T12:51:16;8.77;;;4.40;;
15595;SDS011;7898;48.658;9.068;2023-05-29T12:53:48;7.05;;;4.13;;
15595;SDS011;7898;48.658;9.068;2023-05-29T12:56:15;5.43;;;3.78;;
15595;SDS011;7898;48.658;9.068;2023-05-29T12:58:42;4.75;;;3.65;;
15595;SDS011;7898;48.658;9.068;2023-05-29T13:01:11;7.07;;;3.97;;
15595;SDS011;7898;48.658;9.068;2023-05-29T13:03:40;5.25;;;3.63;;
15595;SDS011;7898;48.658;9.068;2023-05-29T13:06:07;7.22;;;3.80;;
15595;SDS011;7898;48.658;9.068;2023-05-29T13:08:35;5.95;;;3.60;;
15595;SDS011;7898;48.658;9.068;2023-05-29T13:11:02;5.40;;;3.65;;
15595;SDS011;7898;48.658;9.068;2023-05-29T13:13:29;6.60;;;3.67;;
15595;SDS011;7898;48.658;9.068;2023-05-29T13:15:58;7.15;;;4.47;;
15595;SDS011;7898;48.658;9.068;2023-05-29T13:18:25;7.57;;;4.20;;
15595;SDS011;7898;48.658;9.068;2023-05-29T13:20:52;4.95;;;3.40;;
15595;SDS011;7898;48.658;9.068;2023-05-29T13:23:19;4.78;;;3.63;;
15595;SDS011;7898;48.658;9.068;2023-05-29T13:25:48;4.82;;;3.58;;
15595;SDS011;7898;48.658;9.068;2023-05-29T13:28:15;6.25;;;3.60;;
15595;SDS011;7898;48.658;9.068;2023-05-29T13:30:43;6.35;;;3.90;;
15595;SDS011;7898;48.658;9.068;2023-05-29T13:33:10;5.57;;;3.80;;
15595;SDS011;7898;48.658;9.068;2023-05-29T13:35:37;6.30;;;4.10;;
15595;SDS011;7898;48.658;9.068;2023-05-29T13:38:04;4.72;;;3.63;;
15595;SDS011;7898;48.658;9.068;2023-05-29T13:40:31;7.78;;;3.70;;
15595;SDS011;7898;48.658;9.068;2023-05-29T13:42:59;5.78;;;3.75;;
15595;SDS011;7898;48.658;9.068;2023-05-29T13:45:26;6.93;;;4.15;;
15595;SDS011;7898;48.658;9.068;2023-05-29T13:47:54;6.55;;;3.70;;
15595;SDS011;7898;48.658;9.068;2023-05-29T13:50:21;6.88;;;3.75;;
15595;SDS011;7898;48.658;9.068;2023-05-29T13:52:49;7.03;;;4.18;;
15595;SDS011;7898;48.658;9.068;2023-05-29T13:55:16;7.32;;;4.22;;
15595;SDS011;7898;48.658;9.068;2023-05-29T13:57:43;6.43;;;3.85;;
15595;SDS011;7898;48.658;9.068;2023-05-29T14:00:12;7.57;;;4.07;;
15595;SDS011;7898;48.658;9.068;2023-05-29T14:02:39;5.18;;;4.10;;
15595;SDS011;7898;48.658;9.068;2023-05-29T14:05:06;5.40;;;3.70;;
15595;SDS011;7898;48.658;9.068;2023-05-29T14:07:34;4.55;;;3.53;;
15595;SDS011;7898;48.658;9.068;2023-05-29T14:10:01;5.95;;;3.90;;
15595;SDS011;7898;48.658;9.068;2023-05-29T14:12:28;6.00;;;3.80;;
15595;SDS011;7898;48.658;9.068;2023-05-29T14:14:55;6.03;;;3.95;;
15595;SDS011;7898;48.658;9.068;2023-05-29T14:17:24;8.10;;;4.28;;
15595;SDS011;7898;48.658;9.068;2023-05-29T14:19:51;5.75;;;4.07;;
15595;SDS011;7898;48.658;9.068;2023-05-29T14:22:18;5.03;;;3.60;;
15595;SDS011;7898;48.658;9.068;2023-05-29T14:24:45;5.05;;;3.75;;
15595;SDS011;7898;48.658;9.068;2023-05-29T14:27:12;6.18;;;3.78;;
15595;SDS011;7898;48.658;9.068;2023-05-29T14:29:39;5.78;;;3.90;;
15595;SDS011;7898;48.658;9.068;2023-05-29T14:32:06;4.65;;;3.60;;
15595;SDS011;7898;48.658;9.068;2023-05-29T14:34:34;5.32;;;3.90;;
15595;SDS011;7898;48.658;9.068;2023-05-29T14:37:01;7.43;;;3.63;;
15595;SDS011;7898;48.658;9.068;2023-05-29T14:39:28;5.30;;;4.00;;
15595;SDS011;7898;48.658;9.068;2023-05-29T14:41:55;5.90;;;3.53;;
15595;SDS011;7898;48.658;9.068;2023-05-29T14:44:22;5.35;;;4.20;;
15595;SDS011;7898;48.658;9.068;2023-05-29T14:46:49;6.32;;;3.80;;
15595;SDS011;7898;48.658;9.068;2023-05-29T14:49:16;5.45;;;3.67;;
15595;SDS011;7898;48.658;9.068;2023-05-29T14:51:45;7.57;;;3.80;;
15595;SDS011;7898;48.658;9.068;2023-05-29T14:54:11;4.82;;;3.70;;
15595;SDS011;7898;48.658;9.068;2023-05-29T14:56:38;5.53;;;4.20;;
15595;SDS011;7898;48.658;9.068;2023-05-29T14:59:05;5.10;;;4.30;;
15595;SDS011;7898;48.658;9.068;2023-05-29T15:01:32;4.65;;;3.83;;
15595;SDS011;7898;48.658;9.068;2023-05-29T15:03:59;7.00;;;4.05;;